• Join FlightAware (Why Join?)
  • Login
  • US Flag 
01:07AM EDT


 

Airport Tracker/Info


-or-


 

Live Flight TrackerFlight Track Log ✈ SWA1004 ✈ 12-Apr-2013 ✈ KSAT - KPHX

Flight Track Log - Related Links

Times and Time Zones

All times are in EDT time to prevent confusion due to time zone crossing. See the SWA1004 flight status page for this flight to view local times or setup timezone preferences in your user account.

Time Position Orientation Groundspeed Altitude Reporting Facility
EDT Latitude Longitude Course Direction KTS MPH feet Rate Location/Type
03:42PM 29.5586 -98.4336 47° Northeast 162 186 2,500  Level Houston Center
03:43PM 29.5800 -98.4233 23° Northeast 185 213 3,300 1,740 Climbing Houston Center
03:43PM 29.6067 -98.4461 323° Northwest 215 247 4,300 1,500 Climbing Houston Center
03:44PM 29.6214 -98.4642 313° West 250 288 4,700 1,980 Climbing Houston Center
03:44PM 29.6558 -98.5075 312° West 265 305 6,400 2,820 Climbing Houston Center
03:45PM 29.6761 -98.5344 311° West 294 338 7,600 3,360 Climbing Houston Center
03:45PM 29.7131 -98.5808 313° West 286 329 9,900 2,280 Climbing Houston Center
03:47PM 29.7731 -98.6569 312° West 325 374 11,600 2,640 Climbing Houston Center
03:48PM 29.8397 -98.7489 310° West 346 398 15,400 3,000 Climbing Houston Center
03:49PM 29.9053 -98.8383 310° West 364 419 17,900 2,640 Climbing Houston Center
03:50PM 29.9744 -98.9319 310° West 381 438 21,000 2,760 Climbing Houston Center
03:51PM 30.0481 -99.0342 310° West 385 443 23,700 2,160 Climbing Houston Center
03:52PM 30.1000 -99.1411 299° West 397 457 25,500 1,740 Climbing Houston Center
03:53PM 30.1325 -99.2633 287° West 401 461 27,400 1,740 Climbing Houston Center
03:54PM 30.1661 -99.3894 287° West 411 473 29,200 1,740 Climbing Houston Center
03:55PM 30.2003 -99.5147 288° West 411 473 31,100 1,800 Climbing Houston Center
03:56PM 30.2419 -99.6661 288° West 413 475 33,000 1,680 Climbing Houston Center
03:57PM 30.2758 -99.7925 287° West 414 476 34,600 1,440 Climbing Houston Center
03:58PM 30.3094 -99.9181 287° West 413 475 36,000 1,380 Climbing Houston Center
03:59PM 30.3411 -100.0417 287° West 404 465 37,500 960 Climbing Houston Center
04:00PM 30.3800 -100.1886 287° West 403 464 38,000 240 Climbing Houston Center
04:01PM 30.4133 -100.3122 287° West 406 467 38,000  Level Houston Center
04:02PM 30.4461 -100.4375 287° West 408 470 38,000  Level Houston Center
04:03PM 30.4781 -100.5650 286° West 417 480 38,000  Level Houston Center
04:04PM 30.5108 -100.6908 287° West 413 475 38,000  Level Houston Center
04:05PM 30.5489 -100.8406 286° West 405 466 38,000  Level Houston Center
04:06PM 30.5803 -100.9647 286° West 404 465 38,000  Level Houston Center
04:07PM 30.6117 -101.0875 287° West 401 461 38,000  Level Houston Center
04:08PM 30.6433 -101.2094 287° West 398 458 38,000  Level Houston Center
04:09PM 30.6756 -101.3333 287° West 399 459 38,000  Level Houston Center
04:10PM 30.7053 -101.4583 285° West 400 460 38,000  Level Houston Center
04:11PM 30.7428 -101.6064 286° West 400 460 38,000  Level Houston Center
04:12PM 30.7669 -101.7050 286° West 402 463 38,000  Level Albuquerque Center
04:13PM 30.7992 -101.8286 287° West 400 460 38,000  Level Albuquerque Center
04:14PM 30.8306 -101.9531 286° West 401 461 38,000  Level Albuquerque Center
04:15PM 30.8661 -102.1008 286° West 396 456 38,000  Level Albuquerque Center
04:16PM 30.8950 -102.2225 285° West 392 451 38,000  Level Albuquerque Center
04:17PM 30.9244 -102.3439 286° West 388 447 38,000  Level Albuquerque Center
04:18PM 30.9550 -102.4656 286° West 387 445 38,000  Level Albuquerque Center
04:20PM 30.9836 -102.5881 285° West 389 448 38,000  Level Albuquerque Center
04:21PM 31.0133 -102.7097 286° West 389 448 38,000  Level Albuquerque Center
04:22PM 31.0419 -102.8303 286° West 387 445 38,000  Level Albuquerque Center
04:23PM 31.0756 -102.9753 285° West 386 444 38,000  Level Albuquerque Center
04:24PM 31.1044 -103.0981 285° West 388 447 38,000  Level Albuquerque Center
04:25PM 31.1347 -103.2197 286° West 390 449 38,000  Level Albuquerque Center
04:26PM 31.1636 -103.3408 286° West 389 448 38,000  Level Albuquerque Center
04:27PM 31.1908 -103.4611 285° West 385 443 38,000  Level Albuquerque Center
04:28PM 31.2189 -103.5828 285° West 386 444 38,000  Level Albuquerque Center
04:29PM 31.2517 -103.7281 285° West 385 443 38,000  Level Albuquerque Center
04:30PM 31.2750 -103.8278 285° West 385 443 38,000  Level Albuquerque Center
04:31PM 31.3083 -103.9725 285° West 385 443 38,000  Level Albuquerque Center
04:32PM 31.3372 -104.0933 286° West 386 444 38,000  Level Albuquerque Center
04:33PM 31.3647 -104.2136 285° West 385 443 38,000  Level Albuquerque Center
04:34PM 31.3922 -104.3339 285° West 384 442 38,000  Level Albuquerque Center
04:35PM 31.4192 -104.4561 285° West 387 445 38,000  Level Albuquerque Center
04:36PM 31.4531 -104.6044 285° West 392 451 38,000  Level Albuquerque Center
04:37PM 31.4797 -104.7261 284° West 392 451 38,000  Level Albuquerque Center
04:38PM 31.5072 -104.8467 285° West 389 448 38,000  Level Albuquerque Center
04:39PM 31.5339 -104.9672 285° West 387 445 38,000  Level Albuquerque Center
04:40PM 31.5594 -105.0869 284° West 385 443 38,000  Level Albuquerque Center
04:41PM 31.5917 -105.2331 285° West 388 447 38,000  Level Albuquerque Center
04:42PM 31.6183 -105.3578 284° West 397 457 38,000  Level Albuquerque Center
04:43PM 31.6450 -105.4817 284° West 394 453 38,000  Level Albuquerque Center
04:44PM 31.6722 -105.6025 285° West 387 445 38,000  Level Albuquerque Center
04:45PM 31.6983 -105.7275 284° West 394 453 38,000  Level Albuquerque Center
04:46PM 31.7294 -105.8750 284° West 389 448 38,000  Level Albuquerque Center
04:47PM 31.7558 -105.9992 284° West 392 451 38,000  Level Albuquerque Center
04:48PM 31.7822 -106.1225 284° West 391 450 38,000  Level Albuquerque Center
04:50PM 31.8097 -106.2447 285° West 390 449 38,000  Level Albuquerque Center
04:51PM 31.8269 -106.3692 279° West 386 444 38,000  Level Albuquerque Center
04:52PM 31.8489 -106.4947 282° West 391 450 38,000  Level Albuquerque Center
04:53PM 31.8700 -106.6269 281° West 391 450 38,000  Level Albuquerque Center
04:54PM 31.8911 -106.7522 281° West 390 449 38,000  Level Albuquerque Center
04:55PM 31.9158 -106.9028 281° West 389 448 38,000  Level Albuquerque Center
04:56PM 31.9358 -107.0300 281° West 393 452 38,000  Level Albuquerque Center
04:57PM 31.9561 -107.1581 281° West 396 456 38,000  Level Albuquerque Center
04:58PM 31.9753 -107.2864 280° West 396 456 38,000  Level Albuquerque Center
04:59PM 31.9953 -107.4153 280° West 398 458 38,000  Level Albuquerque Center
05:00PM 32.0156 -107.5453 280° West 401 461 38,000  Level Albuquerque Center
05:01PM 32.0344 -107.6733 280° West 398 458 38,000  Level Albuquerque Center
05:02PM 32.0589 -107.8267 281° West 396 456 38,000  Level Albuquerque Center
05:03PM 32.0778 -107.9553 280° West 397 457 38,000  Level Albuquerque Center
05:04PM 32.0964 -108.0836 280° West 397 457 38,000  Level Albuquerque Center
05:05PM 32.1156 -108.2031 281° West 399 459 38,000  Level Albuquerque Center
05:06PM 32.1389 -108.3583 280° West 404 465 38,000 -240 Level Albuquerque Center
05:07PM 32.1575 -108.4872 280° West 402 463 37,500 -720 Descending Albuquerque Center
05:08PM 32.1769 -108.6181 280° West 405 466 36,600 -960 Descending Albuquerque Center
05:09PM 32.1958 -108.7522 279° West 413 475 35,600 -960 Descending Albuquerque Center
05:10PM 32.2150 -108.8864 280° West 416 479 34,700 -780 Descending Albuquerque Center
05:11PM 32.2369 -109.0478 279° West 417 480 34,000 -360 Descending Albuquerque Center
05:12PM 32.2569 -109.1814 280° West 416 479 34,000 -300 Level Albuquerque Center
05:13PM 32.2808 -109.3156 282° West 418 481 33,500 -720 Descending Albuquerque Center
05:14PM 32.3144 -109.4500 287° West 425 489 32,600 -1,020 Descending Albuquerque Center
05:15PM 32.3464 -109.5847 286° West 428 493 31,500 -1,140 Descending Albuquerque Center
05:16PM 32.3847 -109.7431 286° West 423 487 30,300 -1,080 Descending Albuquerque Center
05:17PM 32.4156 -109.8731 286° West 416 479 29,300 -1,020 Descending Albuquerque Center
05:18PM 32.4503 -110.0067 287° West 421 484 28,300 -1,020 Descending Albuquerque Center
05:19PM 32.4806 -110.1367 285° West 417 480 27,300 -1,020 Descending Albuquerque Center
05:21PM 32.5100 -110.2606 286° West 402 463 26,300 -1,020 Descending Albuquerque Center
05:22PM 32.5394 -110.3875 285° West 393 452 25,200 -1,140 Descending Albuquerque Center
05:23PM 32.5744 -110.5339 286° West 387 445 24,000 -600 Descending Albuquerque Center
05:24PM 32.6206 -110.6492 295° West 392 451 24,000 -120 Level Albuquerque Center
05:25PM 32.6797 -110.7603 302° West 398 458 23,800 -780 Descending Albuquerque Center
05:26PM 32.7386 -110.8683 303° West 394 453 22,400 -1,680 Descending Albuquerque Center
05:27PM 32.7981 -110.9786 303° West 395 455 20,300 -2,220 Descending Albuquerque Center
05:28PM 32.8556 -111.0919 301° West 399 459 17,900 -2,280 Descending Albuquerque Center
05:29PM 32.9219 -111.2283 300° West 397 457 15,700 -1,800 Descending Albuquerque Center
05:30PM 32.9706 -111.3344 299° West 370 426 14,300 -1,740 Descending Albuquerque Center
05:31PM 33.0167 -111.4328 299° West 344 396 12,200 -1,860 Descending Albuquerque Center
05:32PM 33.0642 -111.5236 302° West 326 375 10,500 -1,260 Descending Albuquerque Center
05:33PM 33.1250 -111.5872 319° Northwest 298 343 9,700 -900 Descending Albuquerque Center
05:34PM 33.1950 -111.6247 336° Northwest 278 320 8,700 -1,020 Descending Albuquerque Center
05:35PM 33.2686 -111.6686 334° Northwest 248 285 7,700 -1,020 Descending Albuquerque Center
05:36PM 33.3286 -111.7028 335° Northwest 240 276 6,600 -1,020 Descending Albuquerque Center
05:37PM 33.3883 -111.7375 334° Northwest 238 274 5,600 -1,020 Descending Albuquerque Center
05:38PM 33.4192 -111.8014 300° West 233 268 4,600 -900 Descending Albuquerque Center
05:39PM 33.4261 -111.8714 277° West 212 244 3,800 -960 Descending Albuquerque Center
05:40PM 33.4289 -111.9217 274° West 154 177 2,700 -1,080 Descending Albuquerque Center
05:41PM 33.4314 -111.9681 274° West 141 162 1,600 -780 Descending Albuquerque Center
05:42PM 33.4303 -112.0214 269° West 138 159 1,100 -540 Descending Albuquerque Center
05:44PM 33.4343 -112.0116 40° Northeast  Level Estimated